createdAt,value
2022-09-23T00:04:00.883Z,3.70
2022-09-23T00:34:04.895Z,3.44
2022-09-23T01:04:08.034Z,3.33
2022-09-23T01:34:11.593Z,2.77
2022-09-23T02:04:15.415Z,2.55
2022-09-23T02:34:19.116Z,2.30
2022-09-23T03:04:22.449Z,2.08
2022-09-23T03:34:26.391Z,1.87
2022-09-23T04:04:29.364Z,1.65
2022-09-23T04:34:33.124Z,1.62
2022-09-23T05:04:36.072Z,1.54
2022-09-23T05:34:38.960Z,1.81
2022-09-23T06:04:42.200Z,2.80
2022-09-23T06:34:51.523Z,4.00
2022-09-23T07:04:55.336Z,5.81
2022-09-23T07:34:58.933Z,7.99
2022-09-23T08:05:02.119Z,9.82
2022-09-23T08:35:05.266Z,11.58
2022-09-23T09:05:08.578Z,13.17
2022-09-23T09:35:12.224Z,14.07
2022-09-23T10:05:23.838Z,15.06
2022-09-23T10:35:28.621Z,15.52
2022-09-23T11:05:31.370Z,14.84
2022-09-23T11:35:35.925Z,15.82
2022-09-23T12:05:38.997Z,15.92
2022-09-23T12:35:42.578Z,15.13
2022-09-23T13:05:46.046Z,14.96
2022-09-23T13:35:49.517Z,15.20
2022-09-23T14:05:53.131Z,15.27
2022-09-23T14:35:56.391Z,14.98
2022-09-23T15:05:59.163Z,14.41
2022-09-23T15:36:03.663Z,13.77
2022-09-23T16:06:06.624Z,13.42
2022-09-23T16:36:10.701Z,12.70
2022-09-23T17:06:14.202Z,11.40
2022-09-23T17:36:17.962Z,10.22
2022-09-23T18:06:21.363Z,9.67
2022-09-23T18:36:24.589Z,8.98
2022-09-23T19:06:27.954Z,8.62
2022-09-23T19:36:31.568Z,8.72
2022-09-23T20:06:34.503Z,8.33
2022-09-23T20:36:38.201Z,7.73
2022-09-23T21:06:40.942Z,7.43
2022-09-23T21:36:44.839Z,7.63
2022-09-23T22:06:48.812Z,7.78
2022-09-23T22:36:52.425Z,8.11
2022-09-23T23:06:56.891Z,8.14
2022-09-23T23:37:00.176Z,8.25
